Time;durP1;ratioP1;P1;durP2;ratioP2;P2;SDS_P1;SDS_P2;PMS_P1;PMS_P2;Temp;Humidity;BMP_temperature;BMP_pressure;BME280_temperature;BME280_humidity;BME280_pressure;Samples;Min_cycle;Max_cycle;Signal;HPM_P1;HPM_P2
2021/11/20 00:00:01;;;;;;;3.00;2.80;;;11.20;99.90;;;;;;5036342;28;20218;-55
2021/11/20 00:02:31;;;;;;;3.58;2.70;;;11.20;99.90;;;;;;5038244;28;20248;-49
2021/11/20 00:05:00;;;;;;;3.50;3.20;;;11.20;99.90;;;;;;5038997;28;20234;-57
2021/11/20 00:07:27;;;;;;;3.40;2.92;;;11.20;99.90;;;;;;5038709;28;20202;-54
2021/11/20 00:09:55;;;;;;;3.70;2.80;;;11.20;99.90;;;;;;5038714;28;20230;-54
2021/11/20 00:12:27;;;;;;;3.95;2.35;;;11.20;99.90;;;;;;5038379;28;20272;-56
2021/11/20 00:14:55;;;;;;;2.88;2.63;;;11.20;99.90;;;;;;5038583;28;20227;-55
2021/11/20 00:17:23;;;;;;;4.50;3.63;;;11.20;99.90;;;;;;5033469;28;20297;-51
2021/11/20 00:19:50;;;;;;;3.58;3.28;;;11.20;99.90;;;;;;5039877;28;20237;-55
2021/11/20 00:22:26;;;;;;;3.60;3.30;;;11.20;99.90;;;;;;5038075;28;20426;-50
2021/11/20 00:25:00;;;;;;;4.45;2.90;;;11.20;99.90;;;;;;5039159;28;20213;-54
2021/11/20 00:27:33;;;;;;;5.97;3.35;;;11.20;99.90;;;;;;5039023;28;20203;-55
2021/11/20 00:30:17;;;;;;;4.10;3.35;;;11.20;99.90;;;;;;5037370;28;20324;-54
2021/11/20 00:32:50;;;;;;;5.82;4.15;;;11.10;99.90;;;;;;5038832;28;20253;-57
2021/11/20 00:35:22;;;;;;;7.35;3.80;;;11.10;99.90;;;;;;5034066;28;20200;-58
2021/11/20 00:37:50;;;;;;;4.25;2.97;;;11.20;99.90;;;;;;5038055;28;20432;-56
2021/11/20 00:40:27;;;;;;;4.03;3.08;;;11.20;99.90;;;;;;5041724;28;20264;-54
2021/11/20 00:42:54;;;;;;;6.72;3.20;;;11.20;99.90;;;;;;5042069;28;20249;-56
2021/11/20 00:45:21;;;;;;;5.32;4.15;;;11.20;99.90;;;;;;5042540;28;20233;-54
2021/11/20 00:47:49;;;;;;;4.40;3.65;;;11.20;99.90;;;;;;5041429;28;20220;-56
2021/11/20 00:50:18;;;;;;;8.35;4.60;;;11.20;99.90;;;;;;5041493;28;20287;-53
2021/11/20 00:52:47;;;;;;;5.95;4.60;;;11.30;99.90;;;;;;5038699;28;20219;-55
2021/11/20 00:55:28;;;;;;;6.50;4.22;;;11.20;99.90;;;;;;5042491;28;20586;-55
2021/11/20 00:57:56;;;;;;;3.65;3.20;;;11.20;99.90;;;;;;5037983;28;20203;-55
2021/11/20 01:00:32;;;;;;;4.05;3.65;;;11.20;99.90;;;;;;5041855;28;20223;-55
2021/11/20 01:03:01;;;;;;;7.38;4.45;;;11.20;99.90;;;;;;5041877;28;20542;-54
2021/11/20 01:05:30;;;;;;;4.28;3.50;;;11.30;99.90;;;;;;5042364;28;20207;-53
2021/11/20 01:07:58;;;;;;;4.32;3.92;;;11.30;99.90;;;;;;5041820;28;20204;-56
2021/11/20 01:10:29;;;;;;;3.92;3.47;;;11.20;99.90;;;;;;5041835;28;20416;-56
2021/11/20 01:12:57;;;;;;;7.13;4.93;;;11.20;99.90;;;;;;5040900;28;20239;-57
2021/11/20 01:15:32;;;;;;;5.53;4.68;;;11.20;99.90;;;;;;5042101;28;20656;-51
2021/11/20 01:18:01;;;;;;;5.93;2.95;;;11.20;99.90;;;;;;5035408;28;20435;-53
2021/11/20 01:20:28;;;;;;;4.93;3.90;;;11.10;99.90;;;;;;5042093;28;20472;-54
2021/11/20 01:22:56;;;;;;;5.07;4.57;;;11.10;99.90;;;;;;5038802;28;20207;-54
2021/11/20 01:25:25;;;;;;;6.53;4.55;;;11.20;99.90;;;;;;5041801;28;20498;-56
2021/11/20 01:27:53;;;;;;;4.80;4.10;;;11.20;99.90;;;;;;5039131;28;20207;-51
2021/11/20 01:30:20;;;;;;;6.25;4.35;;;11.20;99.90;;;;;;5041718;28;20402;-51
2021/11/20 01:32:48;;;;;;;5.85;4.47;;;11.30;99.90;;;;;;5042126;28;20229;-57
2021/11/20 01:35:16;;;;;;;4.93;3.88;;;11.30;99.90;;;;;;5041383;28;20205;-50
2021/11/20 01:37:46;;;;;;;6.07;4.53;;;11.30;99.90;;;;;;5041963;28;20251;-56
2021/11/20 01:40:17;;;;;;;4.18;3.78;;;11.30;99.90;;;;;;5040900;28;20230;-53
2021/11/20 01:42:44;;;;;;;5.30;4.30;;;11.30;99.90;;;;;;5042119;28;20274;-54
2021/11/20 01:45:22;;;;;;;6.03;4.28;;;11.30;99.90;;;;;;5041227;28;20249;-54
2021/11/20 01:47:56;;;;;;;7.25;4.20;;;11.30;99.90;;;;;;5037073;28;20249;-54
2021/11/20 01:50:29;;;;;;;9.52;4.55;;;11.30;99.90;;;;;;5041148;28;20228;-52
2021/11/20 01:53:32;;;;;;;4.68;4.22;;;11.30;99.90;;;;;;5038225;28;20234;-53
2021/11/20 01:56:02;;;;;;;4.72;3.88;;;11.30;99.90;;;;;;5038778;28;20264;-56
2021/11/20 01:58:36;;;;;;;4.35;3.95;;;11.30;99.90;;;;;;5043243;28;20196;-57
2021/11/20 02:01:36;;;;;;;5.22;4.43;;;11.30;99.90;;;;;;5042373;28;20280;-53
2021/11/20 02:04:28;;;;;;;5.80;3.70;;;11.30;99.90;;;;;;5040108;28;20219;-51
2021/11/20 02:07:01;;;;;;;5.10;4.07;;;11.30;99.90;;;;;;5037716;28;20206;-59
2021/11/20 02:09:47;;;;;;;6.65;4.20;;;11.40;99.90;;;;;;5032622;28;20215;-50
2021/11/20 02:12:38;;;;;;;4.93;3.92;;;11.30;99.90;;;;;;5040814;28;20218;-53
2021/11/20 02:15:10;;;;;;;3.95;3.13;;;11.30;99.90;;;;;;5039107;28;20208;-56
2021/11/20 02:17:42;;;;;;;5.35;4.85;;;11.30;99.90;;;;;;5040801;28;20200;-56
2021/11/20 02:20:21;;;;;;;6.97;6.38;;;11.30;99.90;;;;;;5061434;22;20213;-58
2021/11/20 02:22:49;;;;;;;6.50;4.07;;;11.30;99.90;;;;;;5068982;28;20707;-57
2021/11/20 02:25:16;;;;;;;10.90;5.68;;;11.30;99.90;;;;;;5067812;28;20249;-55
2021/11/20 02:27:47;;;;;;;7.95;4.93;;;11.30;99.90;;;;;;5066312;28;20210;-53
2021/11/20 02:30:33;;;;;;;6.25;4.85;;;11.30;99.90;;;;;;5061138;28;20230;-52
2021/11/20 02:33:13;;;;;;;4.90;4.38;;;11.30;99.90;;;;;;5060533;28;20229;-52
2021/11/20 02:35:45;;;;;;;9.40;5.10;;;11.30;99.90;;;;;;5068732;28;20199;-52
2021/11/20 02:38:21;;;;;;;10.23;5.00;;;11.30;99.90;;;;;;5066962;28;20202;-55
2021/11/20 02:40:48;;;;;;;8.43;5.40;;;11.30;99.90;;;;;;5061213;28;20217;-54
2021/11/20 02:43:17;;;;;;;10.88;5.53;;;11.40;99.90;;;;;;5073807;28;20425;-54
2021/11/20 02:45:48;;;;;;;13.50;6.60;;;11.30;99.90;;;;;;5075477;28;20273;-55
2021/11/20 02:48:16;;;;;;;7.05;5.25;;;11.30;99.90;;;;;;5072449;28;20205;-57
2021/11/20 02:51:02;;;;;;;8.43;4.00;;;11.30;99.90;;;;;;5066480;28;20222;-54
2021/11/20 02:53:35;;;;;;;7.85;5.05;;;11.30;99.90;;;;;;5073280;28;20282;-54
2021/11/20 02:56:04;;;;;;;5.07;4.57;;;11.30;99.90;;;;;;5060798;28;20206;-53
2021/11/20 02:58:33;;;;;;;7.00;6.30;;;11.30;99.90;;;;;;5072727;28;20231;-53
2021/11/20 03:01:22;;;;;;;8.35;5.65;;;11.30;99.90;;;;;;5075714;28;20220;-55
2021/11/20 03:03:51;;;;;;;8.20;5.75;;;11.30;99.90;;;;;;5060395;28;20229;-56
2021/11/20 03:06:19;;;;;;;7.50;4.72;;;11.20;99.90;;;;;;5072594;28;20245;-56
2021/11/20 03:08:47;;;;;;;7.95;5.70;;;11.30;99.90;;;;;;5069872;28;20209;-58
2021/11/20 03:11:16;;;;;;;7.18;5.45;;;11.30;99.90;;;;;;5071654;28;20312;-58
2021/11/20 03:13:47;;;;;;;8.70;4.85;;;11.30;99.90;;;;;;5065344;28;20455;-54
2021/11/20 03:16:15;;;;;;;6.78;5.15;;;11.20;99.90;;;;;;5070214;28;20516;-56
2021/11/20 03:18:42;;;;;;;11.07;5.72;;;11.30;99.90;;;;;;5075138;28;20253;-55
2021/11/20 03:21:11;;;;;;;7.80;5.35;;;11.30;99.90;;;;;;5069063;28;20576;-53
2021/11/20 03:23:43;;;;;;;12.85;6.03;;;11.30;99.90;;;;;;5063803;28;20401;-56
2021/11/20 03:26:10;;;;;;;9.57;5.90;;;11.30;99.90;;;;;;5071884;28;20214;-56
2021/11/20 03:28:37;;;;;;;11.55;6.57;;;11.30;99.90;;;;;;5075207;28;20202;-54
2021/11/20 03:31:05;;;;;;;8.95;5.72;;;11.30;99.90;;;;;;5078535;28;20484;-55
2021/11/20 03:33:33;;;;;;;6.20;5.57;;;11.30;99.90;;;;;;5068668;28;20480;-54
2021/11/20 03:36:01;;;;;;;9.48;5.95;;;11.30;99.90;;;;;;5070876;28;20224;-58
2021/11/20 03:38:29;;;;;;;9.52;6.45;;;11.30;99.90;;;;;;5070428;28;20254;-56
2021/11/20 03:40:56;;;;;;;8.85;7.55;;;11.20;99.90;;;;;;5078954;28;20229;-56
2021/11/20 03:43:24;;;;;;;8.65;6.55;;;11.20;99.90;;;;;;5067014;28;20202;-55
2021/11/20 03:45:52;;;;;;;7.47;6.60;;;11.20;99.90;;;;;;5064006;28;20206;-56
2021/11/20 03:48:19;;;;;;;6.10;5.40;;;11.10;99.90;;;;;;5062666;28;20202;-56
2021/11/20 03:50:48;;;;;;;6.72;5.78;;;11.20;99.90;;;;;;5076277;28;20225;-58
2021/11/20 03:53:15;;;;;;;7.65;5.57;;;11.20;99.90;;;;;;5076189;28;20253;-55
2021/11/20 03:55:47;;;;;;;6.78;5.47;;;11.20;99.90;;;;;;5075817;28;20198;-59
2021/11/20 03:58:17;;;;;;;8.90;6.00;;;11.20;99.90;;;;;;5083236;28;20223;-60
2021/11/20 04:00:51;;;;;;;10.55;7.00;;;11.20;99.90;;;;;;5072235;28;20467;-56
2021/11/20 04:03:20;;;;;;;6.53;5.90;;;11.20;99.90;;;;;;5065129;28;20231;-53
2021/11/20 04:05:51;;;;;;;7.40;5.82;;;11.20;99.90;;;;;;5079570;28;20567;-53
2021/11/20 04:08:25;;;;;;;6.18;5.55;;;11.20;99.90;;;;;;5068197;28;20239;-53
2021/11/20 04:10:55;;;;;;;9.63;6.00;;;11.20;99.90;;;;;;5081539;28;20571;-54
2021/11/20 04:13:22;;;;;;;10.38;6.50;;;11.20;99.90;;;;;;5071540;28;20267;-54
2021/11/20 04:15:51;;;;;;;8.30;6.35;;;11.20;99.90;;;;;;5083744;28;20200;-51
2021/11/20 04:18:19;;;;;;;8.10;6.95;;;11.20;99.90;;;;;;5077039;28;20228;-54
2021/11/20 04:20:47;;;;;;;7.53;6.32;;;11.20;99.90;;;;;;5083758;28;20419;-55
2021/11/20 04:23:14;;;;;;;5.97;5.38;;;11.20;99.90;;;;;;5075739;28;20662;-53
2021/11/20 04:25:42;;;;;;;8.25;5.65;;;11.20;99.90;;;;;;5083693;28;20477;-55
2021/11/20 04:28:10;;;;;;;9.27;6.15;;;11.20;99.90;;;;;;5065235;28;20251;-57
2021/11/20 04:30:39;;;;;;;9.48;5.95;;;11.20;99.90;;;;;;5067924;28;20270;-59
2021/11/20 04:33:07;;;;;;;10.10;6.47;;;11.10;99.90;;;;;;5074045;28;20674;-55
2021/11/20 04:35:35;;;;;;;8.88;7.75;;;11.10;99.90;;;;;;5075540;28;20195;-62
2021/11/20 04:38:04;;;;;;;7.55;6.25;;;11.10;99.90;;;;;;5082307;28;20242;-54
2021/11/20 04:40:31;;;;;;;9.40;6.30;;;11.10;99.90;;;;;;5078265;28;20268;-58
2021/11/20 04:42:59;;;;;;;9.63;7.40;;;11.10;99.90;;;;;;5075805;28;20354;-54
2021/11/20 04:45:31;;;;;;;7.40;6.60;;;11.10;99.90;;;;;;5075174;28;20198;-59
2021/11/20 04:48:01;;;;;;;8.02;7.22;;;11.10;99.90;;;;;;5073562;28;20201;-58
2021/11/20 04:50:29;;;;;;;9.32;7.10;;;11.00;99.90;;;;;;5072250;28;20605;-57
2021/11/20 04:52:57;;;;;;;7.10;6.50;;;11.10;99.90;;;;;;5082769;28;20202;-55
2021/11/20 04:55:25;;;;;;;11.52;6.60;;;11.10;99.90;;;;;;5073170;28;20201;-56
2021/11/20 04:57:53;;;;;;;9.32;6.60;;;11.00;99.90;;;;;;5072016;28;20198;-56
2021/11/20 05:00:31;;;;;;;7.55;6.15;;;11.00;99.90;;;;;;5077820;28;20225;-57
2021/11/20 05:02:59;;;;;;;8.30;6.50;;;11.00;99.90;;;;;;5077832;28;20431;-58
2021/11/20 05:05:27;;;;;;;8.55;7.50;;;11.00;99.90;;;;;;5082344;28;20202;-57
2021/11/20 05:07:55;;;;;;;9.18;8.20;;;11.00;99.90;;;;;;5081840;28;20197;-53
2021/11/20 05:10:22;;;;;;;7.50;6.80;;;11.00;99.90;;;;;;5068087;28;20260;-58
2021/11/20 05:12:50;;;;;;;9.88;6.57;;;11.00;99.90;;;;;;5079519;28;20197;-55
2021/11/20 05:15:17;;;;;;;8.18;7.35;;;11.00;99.90;;;;;;5070563;28;20241;-58
2021/11/20 05:17:45;;;;;;;14.10;8.35;;;11.00;99.90;;;;;;5077971;28;20244;-57
2021/11/20 05:20:13;;;;;;;10.80;8.95;;;11.00;99.90;;;;;;5076857;28;20303;-57
2021/11/20 05:22:42;;;;;;;9.20;7.25;;;11.00;99.90;;;;;;5080968;28;20246;-54
2021/11/20 05:25:11;;;;;;;11.45;6.85;;;11.00;99.90;;;;;;5081571;28;20241;-55
2021/11/20 05:27:40;;;;;;;8.88;8.00;;;11.00;99.90;;;;;;5075792;28;20236;-56
2021/11/20 05:30:17;;;;;;;11.25;8.80;;;10.90;99.90;;;;;;5075660;28;20208;-59
2021/11/20 05:32:46;;;;;;;9.25;7.57;;;10.90;99.90;;;;;;5073128;28;20201;-55
2021/11/20 05:35:16;;;;;;;9.00;7.28;;;10.90;99.90;;;;;;5076636;28;20234;-56
2021/11/20 05:37:45;;;;;;;11.73;8.75;;;10.90;99.90;;;;;;5074243;28;20533;-52
2021/11/20 05:40:14;;;;;;;7.90;6.85;;;10.80;99.90;;;;;;5072797;28;20296;-50
2021/11/20 05:42:49;;;;;;;8.95;8.02;;;10.80;99.90;;;;;;5073356;28;20251;-56
2021/11/20 05:45:22;;;;;;;9.48;8.02;;;10.80;99.90;;;;;;5071676;28;20199;-56
2021/11/20 05:47:50;;;;;;;9.23;8.15;;;10.70;99.90;;;;;;5065543;28;20405;-56
2021/11/20 05:50:19;;;;;;;7.70;6.95;;;10.70;99.90;;;;;;5078922;28;20263;-56
2021/11/20 05:52:49;;;;;;;8.45;7.65;;;10.70;99.90;;;;;;5069337;28;20262;-53
2021/11/20 05:55:19;;;;;;;10.73;8.60;;;10.60;99.90;;;;;;5078826;28;20236;-55
2021/11/20 05:57:46;;;;;;;11.00;8.90;;;10.60;99.90;;;;;;5069369;28;20266;-53
2021/11/20 06:00:18;;;;;;;7.72;7.00;;;10.50;99.90;;;;;;5077655;28;20990;-58
2021/11/20 06:02:45;;;;;;;10.32;8.60;;;10.50;99.90;;;;;;5068015;28;20202;-56
2021/11/20 06:05:13;;;;;;;13.13;9.40;;;10.50;99.90;;;;;;5072777;28;20236;-56
2021/11/20 06:07:41;;;;;;;14.38;8.63;;;10.50;99.90;;;;;;5081525;28;20238;-51
2021/11/20 06:10:09;;;;;;;12.88;9.40;;;10.50;99.90;;;;;;5079414;28;20209;-49
2021/11/20 06:12:36;;;;;;;13.55;10.30;;;10.50;99.90;;;;;;5065868;28;20574;-54
2021/11/20 06:15:05;;;;;;;13.68;9.23;;;10.50;99.90;;;;;;5069319;28;20274;-57
2021/11/20 06:17:32;;;;;;;14.18;9.50;;;10.50;99.90;;;;;;5070555;28;20532;-56
2021/11/20 06:19:59;;;;;;;11.40;8.70;;;10.40;99.90;;;;;;5067078;28;20517;-55
2021/11/20 06:22:30;;;;;;;13.68;12.18;;;10.40;99.90;;;;;;5061281;28;20205;-54
2021/11/20 06:24:58;;;;;;;10.90;8.90;;;10.40;99.90;;;;;;5070466;28;20207;-55
2021/11/20 06:27:25;;;;;;;17.23;12.63;;;10.30;99.90;;;;;;5074081;28;20200;-57
2021/11/20 06:29:53;;;;;;;15.05;10.65;;;10.20;99.90;;;;;;5073168;28;20212;-58
2021/11/20 06:32:20;;;;;;;11.55;10.13;;;10.30;99.90;;;;;;5079700;28;20213;-54
2021/11/20 06:34:48;;;;;;;12.82;11.38;;;10.30;99.90;;;;;;5079891;28;20605;-58
2021/11/20 06:37:15;;;;;;;10.70;9.10;;;10.20;99.90;;;;;;5075212;28;20202;-54
2021/11/20 06:39:43;;;;;;;10.80;9.65;;;10.20;99.90;;;;;;5073477;28;20243;-56
2021/11/20 06:42:10;;;;;;;11.50;10.30;;;10.20;99.90;;;;;;5065470;28;20245;-56
2021/11/20 06:44:38;;;;;;;14.15;11.13;;;10.20;99.90;;;;;;5074958;28;20199;-59
2021/11/20 06:47:05;;;;;;;18.02;11.82;;;10.20;99.90;;;;;;5076678;28;20205;-56
2021/11/20 06:49:33;;;;;;;12.68;11.07;;;10.20;99.90;;;;;;5065255;28;20254;-56
2021/11/20 06:52:00;;;;;;;11.10;9.88;;;10.20;99.90;;;;;;5076883;28;20223;-57
2021/11/20 06:54:29;;;;;;;14.55;11.40;;;10.20;99.90;;;;;;5070129;28;20232;-56
2021/11/20 06:57:07;;;;;;;13.55;10.15;;;10.10;99.90;;;;;;5068712;28;20574;-54
2021/11/20 07:02:32;;;;;;;19.45;11.20;;;10.10;99.90;;;;;;5069556;28;20446;-56
2021/11/20 07:05:01;;;;;;;14.45;12.13;;;10.10;99.90;;;;;;5078057;28;20212;-57
2021/11/20 07:07:28;;;;;;;21.33;13.05;;;10.10;99.90;;;;;;5073814;28;20197;-56
2021/11/20 07:09:56;;;;;;;15.48;12.18;;;10.20;99.90;;;;;;5075636;28;20254;-54
2021/11/20 07:12:23;;;;;;;13.30;11.77;;;10.20;99.90;;;;;;5068976;28;20201;-53
2021/11/20 07:14:50;;;;;;;12.73;11.43;;;10.30;99.90;;;;;;5073238;28;20450;-56
2021/11/20 07:17:19;;;;;;;15.90;10.70;;;10.30;99.90;;;;;;5072653;28;20234;-57
2021/11/20 07:19:46;;;;;;;13.82;10.43;;;10.20;99.90;;;;;;5073169;28;20234;-55
2021/11/20 07:22:14;;;;;;;15.00;12.90;;;10.20;99.90;;;;;;5062876;28;20440;-56
2021/11/20 07:24:41;;;;;;;18.10;13.18;;;10.20;99.90;;;;;;5071940;28;20200;-58
2021/11/20 07:27:09;;;;;;;15.07;13.18;;;10.20;99.90;;;;;;5069669;28;20301;-56
2021/11/20 07:29:36;;;;;;;14.20;10.70;;;10.20;99.90;;;;;;5069964;28;20238;-55
2021/11/20 07:32:05;;;;;;;17.35;14.20;;;10.20;99.90;;;;;;5072676;28;20270;-55
2021/11/20 07:34:33;;;;;;;15.32;12.07;;;10.20;99.90;;;;;;5069875;28;20271;-54
2021/11/20 07:37:00;;;;;;;14.90;12.07;;;10.20;99.90;;;;;;5070480;28;20260;-58
2021/11/20 07:39:28;;;;;;;16.25;13.05;;;10.20;99.90;;;;;;5078536;28;20196;-58
2021/11/20 07:41:55;;;;;;;16.48;13.23;;;10.20;99.90;;;;;;5065536;28;20224;-51
2021/11/20 07:44:23;;;;;;;16.13;11.80;;;10.20;99.90;;;;;;5070132;28;20234;-56
2021/11/20 07:46:51;;;;;;;15.02;11.80;;;10.30;99.90;;;;;;5063905;28;20235;-58
2021/11/20 07:49:18;;;;;;;16.83;12.55;;;10.30;99.90;;;;;;5078965;28;20199;-56
2021/11/20 07:51:45;;;;;;;17.45;13.48;;;10.30;99.90;;;;;;5072079;28;20470;-56
2021/11/20 07:54:13;;;;;;;16.42;14.35;;;10.30;99.90;;;;;;5064527;28;20596;-55
2021/11/20 07:56:43;;;;;;;17.65;12.63;;;10.20;99.90;;;;;;5067100;28;20239;-56
2021/11/20 07:59:15;;;;;;;12.50;11.05;;;10.30;99.90;;;;;;5059409;28;20201;-56
2021/11/20 08:01:43;;;;;;;17.40;12.55;;;10.30;99.90;;;;;;5067877;28;20215;-59
2021/11/20 08:04:14;;;;;;;16.20;13.00;;;10.40;99.90;;;;;;5071421;28;20201;-55
2021/11/20 08:06:42;;;;;;;18.38;12.43;;;10.40;99.90;;;;;;5068178;28;20201;-53
2021/11/20 08:09:10;;;;;;;17.70;12.20;;;10.30;99.90;;;;;;5079112;28;20544;-54
2021/11/20 08:11:38;;;;;;;13.30;11.13;;;10.30;99.90;;;;;;5067790;28;20221;-56
2021/11/20 08:14:06;;;;;;;17.15;12.50;;;10.30;99.90;;;;;;5067844;28;20263;-57
2021/11/20 08:16:36;;;;;;;15.15;11.60;;;10.40;99.90;;;;;;5060386;28;20244;-52
2021/11/20 08:19:04;;;;;;;11.40;10.20;;;10.50;99.90;;;;;;5060023;28;20213;-55
2021/11/20 08:21:32;;;;;;;14.63;12.77;;;10.50;99.90;;;;;;5059857;28;20224;-53
2021/11/20 08:23:59;;;;;;;12.77;10.48;;;10.60;99.90;;;;;;5059052;28;20270;-50
2021/11/20 08:26:35;;;;;;;11.25;9.32;;;10.60;99.90;;;;;;5059022;28;20246;-52
2021/11/20 08:29:10;;;;;;;14.13;11.43;;;10.50;99.90;;;;;;5063740;28;20204;-54
2021/11/20 08:31:41;;;;;;;14.10;10.88;;;10.60;99.90;;;;;;5060788;28;20215;-54
2021/11/20 08:34:08;;;;;;;13.75;10.45;;;10.70;99.90;;;;;;5059812;28;20501;-57
2021/11/20 08:36:36;;;;;;;15.88;10.48;;;10.80;99.90;;;;;;5059370;28;20198;-56
2021/11/20 08:39:06;;;;;;;16.08;11.98;;;10.60;99.90;;;;;;5063041;28;20504;-53
2021/11/20 08:41:33;;;;;;;14.30;10.68;;;10.60;99.90;;;;;;5077295;28;20225;-59
2021/11/20 08:44:01;;;;;;;12.32;9.27;;;10.70;99.90;;;;;;5076736;28;20196;-55
2021/11/20 08:46:29;;;;;;;14.20;11.00;;;10.70;99.90;;;;;;5076618;28;20205;-57
2021/11/20 08:48:57;;;;;;;11.02;9.45;;;10.80;99.90;;;;;;5072249;28;20373;-52
2021/11/20 08:51:27;;;;;;;9.82;8.40;;;10.80;99.90;;;;;;5079880;28;20217;-51
2021/11/20 08:53:55;;;;;;;11.05;8.80;;;10.80;99.90;;;;;;5072933;28;20203;-52
2021/11/20 08:56:23;;;;;;;8.98;8.10;;;10.80;99.90;;;;;;5069072;28;20429;-55
2021/11/20 08:58:51;;;;;;;9.00;7.80;;;11.00;99.90;;;;;;5076639;28;20205;-52
2021/11/20 09:01:24;;;;;;;10.85;8.10;;;11.20;99.90;;;;;;5072977;28;20267;-57
2021/11/20 09:03:58;;;;;;;9.35;6.90;;;11.20;99.90;;;;;;5069146;28;20603;-56
2021/11/20 09:06:50;;;;;;;8.57;7.72;;;11.30;99.90;;;;;;5073990;28;20202;-52
2021/11/20 09:09:27;;;;;;;8.23;7.32;;;11.40;99.90;;;;;;5073376;28;20210;-54
2021/11/20 09:12:20;;;;;;;8.93;7.63;;;11.50;99.90;;;;;;5064630;28;20217;-59
2021/11/20 09:15:00;;;;;;;10.20;7.55;;;11.50;99.90;;;;;;5063591;28;20521;-56
2021/11/20 09:17:29;;;;;;;10.32;7.82;;;11.50;99.90;;;;;;5071461;28;20221;-59
2021/11/20 09:19:56;;;;;;;8.65;7.60;;;11.60;99.90;;;;;;5071599;28;20202;-58
2021/11/20 09:22:24;;;;;;;7.18;6.43;;;11.70;99.90;;;;;;5070730;28;20418;-50
2021/11/20 09:24:51;;;;;;;7.50;6.78;;;11.60;99.90;;;;;;5076598;28;20581;-59
2021/11/20 09:27:39;;;;;;;8.50;7.25;;;11.60;99.90;;;;;;5076802;28;20526;-60
2021/11/20 09:30:13;;;;;;;7.93;7.13;;;11.60;99.90;;;;;;5091450;23;20478;-50
2021/11/20 09:32:40;;;;;;;7.80;6.75;;;11.60;99.90;;;;;;5051038;28;20272;-54
2021/11/20 09:35:08;;;;;;;10.85;6.97;;;11.60;99.90;;;;;;5058532;28;20234;-52
2021/11/20 09:37:36;;;;;;;8.90;6.88;;;11.60;99.90;;;;;;5052377;28;20263;-57
2021/11/20 09:40:05;;;;;;;8.02;7.22;;;11.60;99.90;;;;;;5049981;28;20222;-54
2021/11/20 09:42:45;;;;;;;10.15;7.82;;;11.50;99.90;;;;;;5052346;28;20978;-56
2021/11/20 09:45:24;;;;;;;8.60;7.40;;;11.50;99.90;;;;;;5054974;28;20292;-57
2021/11/20 09:47:57;;;;;;;8.90;8.10;;;11.50;99.90;;;;;;5051356;28;20272;-56
2021/11/20 09:50:46;;;;;;;7.03;6.10;;;11.50;99.90;;;;;;5058912;28;20222;-55
2021/11/20 09:53:14;;;;;;;9.45;8.23;;;11.40;99.90;;;;;;5059298;28;20214;-51
2021/11/20 09:55:50;;;;;;;8.18;7.43;;;11.40;99.90;;;;;;5059490;28;20235;-54
2021/11/20 09:58:29;;;;;;;7.72;6.88;;;11.30;99.90;;;;;;5057686;28;20540;-53
2021/11/20 10:01:32;;;;;;;11.18;7.75;;;11.20;99.90;;;;;;5057989;28;20230;-55
2021/11/20 10:04:04;;;;;;;8.20;7.40;;;11.30;99.90;;;;;;5056978;28;20286;-52
2021/11/20 10:06:42;;;;;;;13.45;8.75;;;11.30;99.90;;;;;;5054410;28;20208;-54
2021/11/20 10:09:27;;;;;;;7.95;6.75;;;11.20;99.90;;;;;;5056357;28;20439;-55
2021/11/20 10:12:16;;;;;;;9.50;7.35;;;11.20;99.90;;;;;;5056904;28;20232;-52
2021/11/20 10:14:48;;;;;;;11.27;8.10;;;11.30;99.90;;;;;;5049769;28;20234;-51
2021/11/20 10:17:42;;;;;;;10.23;8.30;;;11.30;99.90;;;;;;5057028;28;20203;-55
2021/11/20 10:20:37;;;;;;;7.50;6.80;;;11.40;99.90;;;;;;5049948;28;20214;-53
2021/11/20 10:23:10;;;;;;;9.30;8.25;;;11.40;99.90;;;;;;5049802;28;20206;-55
2021/11/20 10:26:04;;;;;;;8.38;6.90;;;11.50;99.90;;;;;;5054229;28;20256;-55
2021/11/20 10:28:31;;;;;;;7.60;6.85;;;11.50;99.90;;;;;;5058738;28;20206;-56
2021/11/20 10:31:15;;;;;;;9.68;6.90;;;11.50;99.90;;;;;;5053350;28;20521;-51
2021/11/20 10:34:06;;;;;;;8.30;6.07;;;11.40;99.90;;;;;;5054971;28;20201;-55
2021/11/20 10:36:46;;;;;;;9.02;7.88;;;11.50;99.90;;;;;;5051392;28;20238;-54
2021/11/20 10:39:23;;;;;;;8.15;6.88;;;11.50;99.90;;;;;;5045210;28;20282;-56
2021/11/20 10:42:10;;;;;;;6.72;6.00;;;11.60;99.90;;;;;;5060083;28;20285;-54
2021/11/20 10:44:41;;;;;;;8.25;6.03;;;11.60;99.90;;;;;;5053432;28;20218;-53
2021/11/20 10:47:11;;;;;;;7.03;5.43;;;11.60;99.90;;;;;;5069982;28;20437;-54
2021/11/20 10:49:47;;;;;;;6.15;5.55;;;11.60;99.90;;;;;;5057630;28;20198;-55
2021/11/20 10:52:44;;;;;;;9.77;5.78;;;11.60;99.90;;;;;;5047556;28;20413;-52
2021/11/20 10:55:25;;;;;;;6.20;5.60;;;11.70;99.90;;;;;;5051910;28;20226;-55
2021/11/20 10:57:59;;;;;;;6.90;6.20;;;11.80;99.90;;;;;;5053039;28;20358;-57
2021/11/20 11:01:07;;;;;;;8.88;6.65;;;11.90;99.90;;;;;;5044515;28;20260;-52
2021/11/20 11:03:44;;;;;;;10.98;6.97;;;11.90;99.90;;;;;;5043022;28;20210;-53
2021/11/20 11:06:44;;;;;;;5.43;4.93;;;11.90;99.90;;;;;;5048624;28;20205;-56
2021/11/20 11:09:23;;;;;;;6.70;5.88;;;11.90;99.90;;;;;;5047131;28;20252;-55
2021/11/20 11:12:01;;;;;;;6.78;5.50;;;12.10;99.90;;;;;;5049815;28;20273;-54
2021/11/20 11:15:20;;;;;;;7.40;6.35;;;12.20;99.90;;;;;;5055040;28;20369;-57
2021/11/20 11:18:25;;;;;;;11.13;7.07;;;12.30;99.90;;;;;;5042143;28;20498;-54
2021/11/20 11:21:26;;;;;;;8.77;7.38;;;12.10;99.90;;;;;;5050726;28;20264;-54
2021/11/20 11:24:15;;;;;;;7.07;5.35;;;12.20;99.90;;;;;;5045301;28;20194;-52
2021/11/20 11:26:52;;;;;;;9.95;6.18;;;12.20;99.90;;;;;;5039960;28;20207;-57
2021/11/20 11:29:40;;;;;;;6.38;5.78;;;12.10;99.90;;;;;;5048669;28;20203;-56
2021/11/20 11:32:08;;;;;;;6.55;5.95;;;12.20;99.90;;;;;;5049800;28;20471;-56
2021/11/20 11:34:49;;;;;;;6.95;5.80;;;12.10;99.90;;;;;;5053934;28;20228;-53
2021/11/20 11:37:34;;;;;;;5.65;5.00;;;12.00;99.90;;;;;;5050102;28;20199;-54
2021/11/20 11:40:21;;;;;;;5.50;5.00;;;12.00;99.90;;;;;;5041502;28;20227;-53
2021/11/20 11:43:19;;;;;;;6.00;5.38;;;12.00;99.90;;;;;;5039363;28;20203;-50
2021/11/20 11:46:20;;;;;;;6.55;5.00;;;12.10;99.90;;;;;;5048399;28;20206;-52
2021/11/20 11:49:08;;;;;;;5.28;4.75;;;12.10;99.90;;;;;;5053823;28;20468;-51
2021/11/20 11:51:56;;;;;;;4.90;4.47;;;12.00;99.90;;;;;;5045649;28;20282;-54
2021/11/20 11:54:38;;;;;;;6.80;5.38;;;11.90;99.90;;;;;;5048423;28;20218;-49
2021/11/20 11:57:12;;;;;;;4.47;4.05;;;11.90;99.90;;;;;;5044979;28;20198;-53
2021/11/20 11:59:42;;;;;;;6.28;5.20;;;11.90;99.90;;;;;;5043341;28;20217;-53
2021/11/20 12:02:23;;;;;;;6.95;5.82;;;11.90;99.90;;;;;;5053186;28;20579;-48
2021/11/20 12:04:55;;;;;;;5.25;4.75;;;11.90;99.90;;;;;;5049101;28;20199;-51
2021/11/20 12:07:41;;;;;;;6.35;5.75;;;11.80;99.90;;;;;;5049418;28;20264;-50
2021/11/20 12:10:14;;;;;;;6.70;5.05;;;11.90;99.90;;;;;;5050491;28;20229;-53
2021/11/20 12:13:05;;;;;;;7.68;6.72;;;11.80;99.90;;;;;;5053573;28;20206;-52
2021/11/20 12:15:40;;;;;;;9.18;6.32;;;11.80;99.90;;;;;;5055119;28;20289;-49
2021/11/20 12:18:22;;;;;;;9.27;5.80;;;11.70;99.90;;;;;;5051548;28;20393;-50
2021/11/20 12:21:05;;;;;;;8.27;6.05;;;11.80;99.90;;;;;;5053186;28;20222;-54
2021/11/20 12:23:50;;;;;;;8.32;6.18;;;11.90;99.90;;;;;;5052509;28;20237;-47
2021/11/20 12:26:20;;;;;;;8.27;6.80;;;11.90;99.90;;;;;;5051288;28;20214;-52
2021/11/20 12:28:50;;;;;;;7.55;6.75;;;11.90;99.90;;;;;;5052174;28;20191;-51
2021/11/20 12:31:39;;;;;;;8.20;6.10;;;11.90;99.90;;;;;;5056554;28;20296;-53
2021/11/20 12:34:30;;;;;;;8.93;6.88;;;11.90;99.90;;;;;;5053754;28;20229;-53
2021/11/20 12:36:57;;;;;;;7.95;6.13;;;11.80;99.90;;;;;;5049083;28;20234;-53
2021/11/20 12:39:44;;;;;;;8.02;6.13;;;11.80;99.90;;;;;;5044292;28;20229;-55
2021/11/20 12:42:18;;;;;;;7.47;5.55;;;11.90;99.90;;;;;;5046144;28;20219;-53
2021/11/20 12:45:03;;;;;;;10.38;7.45;;;11.90;99.90;;;;;;5048956;28;20202;-50
2021/11/20 12:47:42;;;;;;;6.00;4.93;;;11.90;99.90;;;;;;5050312;28;20386;-53
2021/11/20 12:50:28;;;;;;;9.15;7.45;;;11.80;99.90;;;;;;5057449;28;20267;-53
2021/11/20 12:53:25;;;;;;;7.00;6.30;;;11.70;99.90;;;;;;5050079;28;20226;-55
2021/11/20 12:56:17;;;;;;;8.10;7.30;;;11.70;99.90;;;;;;5052848;28;20586;-52
2021/11/20 12:58:47;;;;;;;7.45;6.45;;;11.70;99.90;;;;;;5049839;28;20238;-53
2021/11/20 13:01:18;;;;;;;8.82;7.93;;;11.70;99.90;;;;;;5058243;28;20302;-52
2021/11/20 13:03:52;;;;;;;11.18;7.32;;;11.70;99.90;;;;;;5058312;28;20210;-52
2021/11/20 13:06:30;;;;;;;6.85;6.15;;;11.70;99.90;;;;;;5052851;28;20237;-51
2021/11/20 13:09:01;;;;;;;7.50;6.80;;;11.70;99.90;;;;;;5054962;28;20245;-50
2021/11/20 13:11:50;;;;;;;9.63;7.85;;;11.60;99.90;;;;;;5052791;28;20573;-51
2021/11/20 13:14:25;;;;;;;12.50;8.27;;;11.60;99.90;;;;;;5049207;28;20562;-53
2021/11/20 13:17:17;;;;;;;8.85;7.95;;;11.60;99.90;;;;;;5057969;28;20241;-50